createdAt,value
2023-04-06T00:00:23.492Z,98605.25
2023-04-06T00:02:54.012Z,98600.25
2023-04-06T00:05:24.988Z,98599.38
2023-04-06T00:07:56.112Z,98618.47
2023-04-06T00:10:25.408Z,98619.19
2023-04-06T00:12:54.749Z,98621.16
2023-04-06T00:15:24.074Z,98618.59
2023-04-06T00:17:53.227Z,98615.09
2023-04-06T00:20:22.685Z,98615.13
2023-04-06T00:22:51.543Z,98615.81
2023-04-06T00:25:20.712Z,98620.13
2023-04-06T00:27:49.579Z,98619.28
2023-04-06T00:30:18.940Z,98627.28
2023-04-06T00:32:47.938Z,98627.28
2023-04-06T00:35:17.765Z,98627.22
2023-04-06T00:37:50.152Z,98629.66
2023-04-06T00:40:19.602Z,98633.44
2023-04-06T00:42:48.568Z,98639.44
2023-04-06T00:45:17.820Z,98638.50
2023-04-06T00:47:46.751Z,98625.41
2023-04-06T00:50:16.525Z,98643.66
2023-04-06T00:52:45.481Z,98648.91
2023-04-06T00:55:14.975Z,98651.50
2023-04-06T00:57:45.990Z,98655.88
2023-04-06T01:00:15.943Z,98655.16
2023-04-06T01:02:48.403Z,98660.25
2023-04-06T01:05:21.913Z,98657.50
2023-04-06T01:07:57.801Z,98662.78
2023-04-06T01:10:30.672Z,98665.78
2023-04-06T01:13:15.350Z,98673.00
2023-04-06T01:16:05.169Z,98669.28
2023-04-06T01:18:54.363Z,98666.63
2023-04-06T01:21:32.035Z,98676.09
2023-04-06T01:24:19.781Z,98674.25
2023-04-06T01:27:20.860Z,98675.94
2023-04-06T01:30:22.481Z,98682.75
2023-04-06T01:32:59.321Z,98682.69
2023-04-06T01:35:48.556Z,98688.50
2023-04-06T01:38:20.780Z,98678.06
2023-04-06T01:40:51.219Z,98677.81
2023-04-06T01:43:24.251Z,98688.88
2023-04-06T01:46:23.362Z,98700.63
2023-04-06T01:48:53.885Z,98697.84
2023-04-06T01:51:34.715Z,98695.03
2023-04-06T01:54:06.432Z,98698.22
2023-04-06T01:56:58.405Z,98699.66
2023-04-06T01:59:34.537Z,98695.06
2023-04-06T02:02:09.798Z,98696.47
2023-04-06T02:04:40.844Z,98699.66
2023-04-06T02:07:13.706Z,98700.31
2023-04-06T02:09:42.928Z,98708.63
2023-04-06T02:12:18.552Z,98710.97
2023-04-06T02:14:47.566Z,98722.78
2023-04-06T02:17:16.945Z,98728.53
2023-04-06T02:19:46.080Z,98729.16
2023-04-06T02:22:15.086Z,98739.38
2023-04-06T02:24:44.157Z,98743.38
2023-04-06T02:27:13.211Z,98736.19
2023-04-06T02:29:42.386Z,98741.94
2023-04-06T02:32:11.701Z,98742.47
2023-04-06T02:34:40.923Z,98740.72
2023-04-06T02:37:09.911Z,98754.22
2023-04-06T02:39:38.948Z,98747.03
2023-04-06T02:42:10.849Z,98754.53
2023-04-06T02:44:40.006Z,98762.00
2023-04-06T02:47:10.700Z,98760.97
2023-04-06T02:49:42.173Z,98763.25
2023-04-06T02:52:11.624Z,98771.72
2023-04-06T02:54:40.392Z,98768.84
2023-04-06T02:57:10.361Z,98774.47
2023-04-06T02:59:43.543Z,98765.34
2023-04-06T03:02:28.248Z,98763.31
2023-04-06T03:05:06.463Z,98766.44
2023-04-06T03:07:40.149Z,98767.00
2023-04-06T03:10:13.963Z,98775.16
2023-04-06T03:12:43.677Z,98772.25
2023-04-06T03:15:22.772Z,98772.16
2023-04-06T03:18:02.264Z,98772.59
2023-04-06T03:20:39.459Z,98780.03
2023-04-06T03:23:08.853Z,98779.38
2023-04-06T03:25:42.163Z,98779.88
2023-04-06T03:28:16.588Z,98793.47
2023-04-06T03:31:05.714Z,98790.34
2023-04-06T03:34:01.343Z,98802.84
2023-04-06T03:36:34.269Z,98798.19
2023-04-06T03:39:05.382Z,98798.53
2023-04-06T03:41:37.871Z,98799.97
2023-04-06T03:44:15.574Z,98804.63
2023-04-06T03:46:46.339Z,98801.81
2023-04-06T03:49:15.520Z,98802.31
2023-04-06T03:51:47.898Z,98807.69
2023-04-06T03:54:17.427Z,98813.47
2023-04-06T03:56:46.833Z,98806.25
2023-04-06T03:59:16.100Z,98820.44
2023-04-06T04:01:45.009Z,98822.09
2023-04-06T04:04:13.961Z,98830.34
2023-04-06T04:06:42.689Z,98826.25
2023-04-06T04:09:11.780Z,98830.91
2023-04-06T04:11:40.688Z,98833.34
2023-04-06T04:14:09.924Z,98832.78
2023-04-06T04:16:38.935Z,98833.34
2023-04-06T04:19:08.310Z,98838.13
2023-04-06T04:21:48.191Z,98836.78
2023-04-06T04:24:22.100Z,98838.34
2023-04-06T04:26:51.328Z,98846.03
2023-04-06T04:29:23.110Z,98843.06
2023-04-06T04:31:54.642Z,98848.72
2023-04-06T04:34:26.941Z,98852.75
2023-04-06T04:36:56.056Z,98841.66
2023-04-06T04:39:35.576Z,98843.44
2023-04-06T04:42:08.209Z,98839.28
2023-04-06T04:44:41.989Z,98845.91
2023-04-06T04:51:12.339Z,98847.38
2023-04-06T04:54:06.191Z,98851.56
2023-04-06T04:56:35.858Z,98852.06
2023-04-06T04:59:23.469Z,98854.50
2023-04-06T05:02:00.238Z,98855.78
2023-04-06T05:04:40.055Z,98861.84
2023-04-06T05:07:13.026Z,98860.66
2023-04-06T05:09:44.126Z,98863.50
2023-04-06T05:12:14.768Z,98861.78
2023-04-06T05:14:56.874Z,98865.03
2023-04-06T05:17:26.812Z,98868.84
2023-04-06T05:19:57.356Z,98867.84
2023-04-06T05:22:29.322Z,98863.00
2023-04-06T05:25:08.204Z,98861.03
2023-04-06T05:27:38.299Z,98863.44
2023-04-06T05:30:13.046Z,98864.13
2023-04-06T05:32:48.108Z,98868.84
2023-04-06T05:35:18.038Z,98865.28
2023-04-06T05:37:51.434Z,98860.03
2023-04-06T05:40:24.382Z,98864.94
2023-04-06T05:42:54.073Z,98863.97
2023-04-06T05:45:23.629Z,98866.97
2023-04-06T05:47:57.340Z,98869.34
2023-04-06T05:50:31.130Z,98869.41
2023-04-06T05:53:00.796Z,98877.75
2023-04-06T05:55:35.857Z,98869.84
2023-04-06T05:58:35.350Z,98878.16
2023-04-06T06:01:08.824Z,98867.59
2023-04-06T06:03:43.001Z,98863.25
2023-04-06T06:06:12.537Z,98855.72
2023-04-06T06:09:05.579Z,98854.94
2023-04-06T06:11:40.114Z,98852.63
2023-04-06T06:14:10.522Z,98855.88
2023-04-06T06:16:42.726Z,98856.00
2023-04-06T06:19:15.076Z,98856.50
2023-04-06T06:21:45.931Z,98848.41
2023-04-06T06:24:15.733Z,98851.53
2023-04-06T06:26:45.241Z,98851.81
2023-04-06T06:29:16.942Z,98847.84
2023-04-06T06:31:46.975Z,98851.59
2023-04-06T06:34:16.454Z,98845.63
2023-04-06T06:36:47.867Z,98848.59
2023-04-06T06:39:18.616Z,98833.88
2023-04-06T06:41:48.502Z,98849.00
2023-04-06T06:44:18.784Z,98844.28
2023-04-06T06:46:48.314Z,98841.66
2023-04-06T06:49:17.615Z,98834.41
2023-04-06T06:51:48.558Z,98839.28
2023-04-06T06:54:18.442Z,98833.56
2023-04-06T06:56:48.045Z,98836.59
2023-04-06T06:59:18.419Z,98847.31
2023-04-06T07:01:48.144Z,98839.56
2023-04-06T07:04:17.676Z,98840.94
2023-04-06T07:06:47.517Z,98831.38
2023-04-06T07:09:16.868Z,98832.97
2023-04-06T07:11:47.003Z,98828.47
2023-04-06T07:14:19.428Z,98839.94
2023-04-06T07:16:51.265Z,98826.91
2023-04-06T07:19:21.198Z,98840.28
2023-04-06T07:21:51.747Z,98831.22
2023-04-06T07:24:21.109Z,98829.84
2023-04-06T07:26:50.500Z,98830.31
2023-04-06T07:29:20.276Z,98828.91
2023-04-06T07:31:51.240Z,98825.59
2023-04-06T07:34:20.961Z,98824.22
2023-04-06T07:36:50.361Z,98819.69
2023-04-06T07:39:19.851Z,98825.63
2023-04-06T07:41:49.550Z,98817.72
2023-04-06T07:44:19.323Z,98808.81
2023-04-06T07:46:49.253Z,98809.84
2023-04-06T07:49:19.847Z,98808.88
2023-04-06T07:51:49.313Z,98809.44
2023-04-06T07:54:18.640Z,98810.09
2023-04-06T07:56:48.586Z,98810.84
2023-04-06T07:59:18.190Z,98807.47
2023-04-06T08:01:47.838Z,98806.22
2023-04-06T08:04:17.212Z,98805.28
2023-04-06T08:06:47.078Z,98798.28
2023-04-06T08:09:16.463Z,98785.97
2023-04-06T08:11:46.932Z,98792.25
2023-04-06T08:14:17.488Z,98792.72
2023-04-06T08:16:47.558Z,98787.00
2023-04-06T08:19:19.244Z,98783.13
2023-04-06T08:21:49.712Z,98784.66
2023-04-06T08:24:19.132Z,98784.81
2023-04-06T08:26:48.386Z,98780.03
2023-04-06T08:29:18.541Z,98780.47
2023-04-06T08:31:47.814Z,98771.41
2023-04-06T08:34:17.231Z,98762.94
2023-04-06T08:36:48.216Z,98767.91
2023-04-06T08:39:17.609Z,98764.41
2023-04-06T08:41:47.095Z,98766.00
2023-04-06T08:44:17.196Z,98765.06
2023-04-06T08:46:47.103Z,98761.56
2023-04-06T08:49:18.647Z,98760.72
2023-04-06T08:51:53.816Z,98759.91
2023-04-06T08:54:23.483Z,98756.72
2023-04-06T08:56:54.594Z,98748.06
2023-04-06T08:59:25.918Z,98752.06
2023-04-06T09:01:57.656Z,98735.59
2023-04-06T09:04:28.931Z,98731.25
2023-04-06T09:07:04.086Z,98727.59
2023-04-06T09:09:33.696Z,98720.28
2023-04-06T09:12:07.791Z,98719.44
2023-04-06T09:14:41.622Z,98715.56
2023-04-06T09:17:11.228Z,98711.00
2023-04-06T09:19:50.123Z,98704.31
2023-04-06T09:22:20.698Z,98697.38
2023-04-06T09:24:52.928Z,98702.13
2023-04-06T09:27:38.323Z,98694.28
2023-04-06T09:30:15.469Z,98693.88
2023-04-06T09:32:49.210Z,98693.44
2023-04-06T09:35:19.738Z,98696.22
2023-04-06T09:37:51.655Z,98684.81
2023-04-06T09:40:23.563Z,98681.97
2023-04-06T09:42:55.096Z,98674.34
2023-04-06T09:45:24.774Z,98675.53
2023-04-06T09:47:55.954Z,98667.72
2023-04-06T09:50:27.113Z,98667.09
2023-04-06T09:53:07.862Z,98655.16
2023-04-06T09:55:48.705Z,98646.41
2023-04-06T09:58:28.292Z,98647.69
2023-04-06T10:01:18.191Z,98644.97
2023-04-06T10:04:09.950Z,98647.47
2023-04-06T10:06:41.128Z,98639.03
2023-04-06T10:09:11.628Z,98642.84
2023-04-06T10:11:41.339Z,98634.22
2023-04-06T10:14:10.992Z,98633.53
2023-04-06T10:16:41.271Z,98632.31
2023-04-06T10:19:19.391Z,98637.56
2023-04-06T10:21:53.571Z,98631.44
2023-04-06T10:24:23.594Z,98633.25
2023-04-06T10:27:05.235Z,98630.19
2023-04-06T10:29:50.691Z,98630.50
2023-04-06T10:32:20.211Z,98629.75
2023-04-06T10:34:49.499Z,98624.59
2023-04-06T10:37:21.263Z,98621.09
2023-04-06T10:40:00.345Z,98619.41
2023-04-06T10:42:42.416Z,98618.91
2023-04-06T10:45:23.118Z,98614.13
2023-04-06T10:47:55.859Z,98612.69
2023-04-06T10:50:25.194Z,98605.91
2023-04-06T10:53:05.229Z,98604.00
2023-04-06T10:55:36.957Z,98608.13
2023-04-06T10:58:09.766Z,98600.09
2023-04-06T11:00:50.602Z,98605.38
2023-04-06T11:03:21.768Z,98596.75
2023-04-06T11:05:53.660Z,98598.09
2023-04-06T11:08:31.017Z,98596.41
2023-04-06T11:11:07.847Z,98595.88
2023-04-06T11:13:46.791Z,98592.63
2023-04-06T11:16:26.277Z,98596.63
2023-04-06T11:18:58.277Z,98589.25
2023-04-06T11:21:45.274Z,98588.50
2023-04-06T11:24:15.571Z,98595.25
2023-04-06T11:26:50.574Z,98588.72
2023-04-06T11:29:24.937Z,98589.66
2023-04-06T11:32:03.154Z,98590.00
2023-04-06T11:34:38.987Z,98589.13
2023-04-06T11:37:14.058Z,98597.25
2023-04-06T11:39:51.541Z,98589.25
2023-04-06T11:42:29.132Z,98595.91
2023-04-06T11:45:02.490Z,98602.13
2023-04-06T11:47:40.021Z,98600.13
2023-04-06T11:50:16.782Z,98605.19
2023-04-06T11:52:46.781Z,98599.53
2023-04-06T11:55:23.092Z,98603.47
2023-04-06T11:57:53.788Z,98600.00
2023-04-06T12:00:24.102Z,98608.75
2023-04-06T12:02:54.059Z,98608.03
2023-04-06T12:05:27.182Z,98606.59
2023-04-06T12:07:57.480Z,98612.97
2023-04-06T12:10:28.574Z,98606.72
2023-04-06T12:12:57.760Z,98610.06
2023-04-06T12:15:29.725Z,98609.94
2023-04-06T12:17:59.098Z,98602.59
2023-04-06T12:20:28.395Z,98609.84
2023-04-06T12:22:58.110Z,98615.69
2023-04-06T12:25:27.314Z,98609.22
2023-04-06T12:27:56.898Z,98610.22
2023-04-06T12:30:26.485Z,98606.53
2023-04-06T12:32:55.970Z,98616.19
2023-04-06T12:35:25.232Z,98617.06
2023-04-06T12:37:54.718Z,98614.03
2023-04-06T12:40:23.981Z,98617.06
2023-04-06T12:42:53.307Z,98625.22
2023-04-06T12:45:22.687Z,98624.00
2023-04-06T12:47:53.331Z,98628.25
2023-04-06T12:50:22.933Z,98626.56
2023-04-06T12:52:52.138Z,98626.03
2023-04-06T12:55:22.901Z,98629.13
2023-04-06T12:57:52.331Z,98627.38
2023-04-06T13:00:22.477Z,98633.09
2023-04-06T13:02:52.212Z,98632.63
2023-04-06T13:05:21.587Z,98634.69
2023-04-06T13:07:50.933Z,98635.47
2023-04-06T13:10:20.113Z,98637.97
2023-04-06T13:12:49.472Z,98640.53
2023-04-06T13:15:18.729Z,98638.84
2023-04-06T13:17:48.334Z,98645.41
2023-04-06T13:20:17.604Z,98643.63
2023-04-06T13:22:47.154Z,98641.66
2023-04-06T13:25:16.629Z,98645.31
2023-04-06T13:27:48.246Z,98650.69
2023-04-06T13:30:18.248Z,98651.38
2023-04-06T13:32:47.487Z,98650.56
2023-04-06T13:35:17.010Z,98643.19
2023-04-06T13:37:46.977Z,98650.66
2023-04-06T13:40:16.480Z,98651.94
2023-04-06T13:42:47.231Z,98651.44
2023-04-06T13:45:17.320Z,98658.66
2023-04-06T13:47:47.662Z,98663.84
2023-04-06T13:50:17.188Z,98664.53
2023-04-06T13:52:46.708Z,98665.53
2023-04-06T13:55:16.818Z,98670.31
2023-04-06T13:57:46.081Z,98675.72
2023-04-06T14:00:16.914Z,98675.38
2023-04-06T14:02:46.500Z,98677.94
2023-04-06T14:05:15.977Z,98686.91
2023-04-06T14:07:45.530Z,98688.91
2023-04-06T14:10:16.289Z,98687.91
2023-04-06T14:12:48.649Z,98707.06
2023-04-06T14:15:18.507Z,98707.22
2023-04-06T14:17:47.848Z,98714.91
2023-04-06T14:20:17.431Z,98719.16
2023-04-06T14:22:46.788Z,98719.78
2023-04-06T14:25:16.030Z,98720.28
2023-04-06T14:27:46.548Z,98727.88
2023-04-06T14:30:16.887Z,98729.13
2023-04-06T14:32:46.480Z,98731.94
2023-04-06T14:35:15.822Z,98731.56
2023-04-06T14:37:45.997Z,98745.28
2023-04-06T14:40:15.297Z,98735.09
2023-04-06T14:42:44.734Z,98742.22
2023-04-06T14:45:14.122Z,98745.91
2023-04-06T14:47:43.501Z,98753.47
2023-04-06T14:50:13.319Z,98752.94
2023-04-06T14:52:42.644Z,98759.97
2023-04-06T14:55:11.869Z,98762.66
2023-04-06T14:57:41.506Z,98760.91
2023-04-06T15:00:11.525Z,98763.22
2023-04-06T15:02:42.379Z,98767.91
2023-04-06T15:05:13.059Z,98765.19
2023-04-06T15:07:42.521Z,98768.13
2023-04-06T15:10:12.528Z,98768.59
2023-04-06T15:13:15.583Z,98773.09
2023-04-06T15:15:53.720Z,98769.38
2023-04-06T15:18:23.068Z,98779.25
2023-04-06T15:20:52.661Z,98775.78
2023-04-06T15:23:22.071Z,98775.78
2023-04-06T15:25:51.818Z,98770.78
2023-04-06T15:28:21.326Z,98779.03
2023-04-06T15:30:50.474Z,98784.75
2023-04-06T15:33:22.271Z,98783.03
2023-04-06T15:35:51.567Z,98780.25
2023-04-06T15:38:20.671Z,98784.88
2023-04-06T15:40:51.644Z,98787.22
2023-04-06T15:43:20.997Z,98785.75
2023-04-06T15:45:50.081Z,98790.13
2023-04-06T15:48:20.343Z,98792.13
2023-04-06T15:50:49.758Z,98791.84
2023-04-06T15:53:18.758Z,98790.44
2023-04-06T15:55:48.129Z,98788.31
2023-04-06T15:58:17.260Z,98791.25
2023-04-06T16:00:46.555Z,98794.72
2023-04-06T16:03:15.941Z,98792.09
2023-04-06T16:05:59.186Z,98797.47
2023-04-06T16:08:34.281Z,98809.72
2023-04-06T16:11:03.531Z,98805.47
2023-04-06T16:13:32.940Z,98803.91
2023-04-06T16:16:02.563Z,98804.06
2023-04-06T16:18:34.107Z,98797.69
2023-04-06T16:21:06.484Z,98807.09
2023-04-06T16:23:36.017Z,98814.28
2023-04-06T16:26:14.050Z,98804.34
2023-04-06T16:28:43.965Z,98804.59
2023-04-06T16:31:23.332Z,98805.53
2023-04-06T16:33:57.367Z,98811.66
2023-04-06T16:36:30.918Z,98813.09
2023-04-06T16:39:03.402Z,98812.97
2023-04-06T16:41:33.807Z,98813.78
2023-04-06T16:44:46.467Z,98820.38
2023-04-06T16:47:18.917Z,98820.28
2023-04-06T16:49:48.069Z,98819.16
2023-04-06T16:52:17.383Z,98821.16
2023-04-06T16:54:47.134Z,98820.38
2023-04-06T16:57:16.603Z,98820.28
2023-04-06T16:59:45.863Z,98815.16
2023-04-06T17:02:15.547Z,98811.44
2023-04-06T17:04:45.312Z,98816.81
2023-04-06T17:07:14.635Z,98819.31
2023-04-06T17:09:43.873Z,98817.63
2023-04-06T17:12:14.667Z,98820.50
2023-04-06T17:14:44.159Z,98818.44
2023-04-06T17:17:13.549Z,98810.53
2023-04-06T17:19:42.971Z,98807.41
2023-04-06T17:22:12.242Z,98798.03
2023-04-06T17:24:41.627Z,98798.38
2023-04-06T17:27:10.752Z,98800.59
2023-04-06T17:29:40.187Z,98793.75
2023-04-06T17:32:09.404Z,98796.38
2023-04-06T17:34:38.807Z,98805.34
2023-04-06T17:37:08.107Z,98799.31
2023-04-06T17:39:37.865Z,98798.50
2023-04-06T17:42:07.234Z,98802.72
2023-04-06T17:44:36.613Z,98800.81
2023-04-06T17:47:05.756Z,98803.31
2023-04-06T17:49:35.227Z,98803.31
2023-04-06T17:52:04.517Z,98803.34
2023-04-06T17:54:34.943Z,98804.97
2023-04-06T17:57:05.159Z,98806.81
2023-04-06T17:59:34.411Z,98802.78
2023-04-06T18:02:05.325Z,98806.97
2023-04-06T18:04:34.900Z,98802.66
2023-04-06T18:07:04.425Z,98802.31
2023-04-06T18:09:33.940Z,98810.94
2023-04-06T18:12:03.547Z,98814.53
2023-04-06T18:14:33.691Z,98810.34
2023-04-06T18:17:02.934Z,98808.81
2023-04-06T18:19:33.430Z,98808.00
2023-04-06T18:22:02.926Z,98809.84
2023-04-06T18:24:41.134Z,98803.97
2023-04-06T18:27:14.175Z,98795.00
2023-04-06T18:29:48.476Z,98797.69
2023-04-06T18:32:18.084Z,98802.47
2023-04-06T18:34:47.284Z,98796.38
2023-04-06T18:37:17.297Z,98802.81
2023-04-06T18:39:46.879Z,98808.03
2023-04-06T18:42:15.943Z,98796.84
2023-04-06T18:44:45.291Z,98805.28
2023-04-06T18:47:14.512Z,98804.63
2023-04-06T18:49:43.953Z,98796.50
2023-04-06T18:52:13.070Z,98797.44
2023-04-06T18:54:42.431Z,98795.88
2023-04-06T18:57:12.311Z,98804.75
2023-04-06T18:59:41.776Z,98801.41
2023-04-06T19:02:11.095Z,98793.72
2023-04-06T19:04:40.713Z,98795.72
2023-04-06T19:07:09.861Z,98794.09
2023-04-06T19:09:39.253Z,98792.56
2023-04-06T19:12:08.363Z,98796.13
2023-04-06T19:14:37.719Z,98795.31
2023-04-06T19:17:06.932Z,98802.94
2023-04-06T19:19:36.354Z,98801.22
2023-04-06T19:22:05.494Z,98798.00
2023-04-06T19:24:34.895Z,98796.44
2023-04-06T19:27:04.340Z,98798.50
2023-04-06T19:29:33.571Z,98797.22
2023-04-06T19:32:03.209Z,98791.72
2023-04-06T19:34:32.655Z,98788.94
2023-04-06T19:37:02.188Z,98791.47
2023-04-06T19:39:32.396Z,98801.16
2023-04-06T19:42:02.048Z,98798.31
2023-04-06T19:44:31.366Z,98793.94
2023-04-06T19:47:01.085Z,98797.63
2023-04-06T19:49:30.434Z,98801.09
2023-04-06T19:51:59.942Z,98793.44
2023-04-06T19:54:29.093Z,98801.66
2023-04-06T19:56:58.445Z,98797.47
2023-04-06T19:59:27.545Z,98799.09
2023-04-06T20:01:59.244Z,98799.28
2023-04-06T20:04:32.373Z,98799.47
2023-04-06T20:07:04.239Z,98794.53
2023-04-06T20:09:35.538Z,98799.63
2023-04-06T20:12:06.857Z,98791.16
2023-04-06T20:14:38.533Z,98795.41
2023-04-06T20:17:09.807Z,98793.69
2023-04-06T20:19:41.972Z,98791.75
2023-04-06T20:22:13.405Z,98799.50
2023-04-06T20:24:44.957Z,98801.47
2023-04-06T20:27:16.393Z,98794.41
2023-04-06T20:29:48.407Z,98798.88
2023-04-06T20:32:23.080Z,98788.72
2023-04-06T20:34:55.435Z,98787.88
2023-04-06T20:37:28.459Z,98790.47
2023-04-06T20:39:58.687Z,98795.03
2023-04-06T20:42:34.725Z,98785.34
2023-04-06T20:45:10.751Z,98789.81
2023-04-06T20:47:44.705Z,98787.25
2023-04-06T20:50:17.283Z,98784.84
2023-04-06T20:52:54.788Z,98781.31
2023-04-06T20:55:28.669Z,98774.75
2023-04-06T20:58:04.721Z,98775.59
2023-04-06T21:00:45.107Z,98777.44
2023-04-06T21:03:21.367Z,98778.53
2023-04-06T21:06:03.899Z,98774.03
2023-04-06T21:08:39.873Z,98770.69
2023-04-06T21:11:20.194Z,98764.75
2023-04-06T21:13:56.349Z,98768.38
2023-04-06T21:16:32.400Z,98758.69
2023-04-06T21:19:08.558Z,98756.94
2023-04-06T21:21:44.600Z,98753.66
2023-04-06T21:24:20.647Z,98758.94
2023-04-06T21:26:56.737Z,98757.19
2023-04-06T21:29:30.834Z,98756.50
2023-04-06T21:32:07.000Z,98751.31
2023-04-06T21:34:43.638Z,98753.72
2023-04-06T21:37:19.805Z,98749.47
2023-04-06T21:39:56.213Z,98752.44
2023-04-06T21:42:28.733Z,98753.28
2023-04-06T21:45:04.257Z,98751.63
2023-04-06T21:47:40.400Z,98748.84
2023-04-06T21:50:18.767Z,98752.44
2023-04-06T21:52:54.687Z,98751.63
2023-04-06T21:55:29.210Z,98749.22
2023-04-06T21:58:05.483Z,98750.06
2023-04-06T22:00:41.748Z,98755.59
2023-04-06T22:03:18.230Z,98744.44
2023-04-06T22:05:53.850Z,98738.47
2023-04-06T22:08:33.680Z,98738.47
2023-04-06T22:11:15.017Z,98734.25
2023-04-06T22:13:49.985Z,98728.41
2023-04-06T22:16:25.506Z,98729.59
2023-04-06T22:19:01.806Z,98727.03
2023-04-06T22:21:37.830Z,98726.38
2023-04-06T22:24:13.693Z,98720.59
2023-04-06T22:26:48.125Z,98720.59
2023-04-06T22:29:23.335Z,98718.94
2023-04-06T22:31:57.982Z,98718.94
2023-04-06T22:34:34.075Z,98718.94
2023-04-06T22:37:08.223Z,98721.91
2023-04-06T22:39:44.298Z,98726.81
2023-04-06T22:42:18.513Z,98722.50
2023-04-06T22:44:54.751Z,98725.81
2023-04-06T22:47:31.026Z,98724.31
2023-04-06T22:50:08.702Z,98718.25
2023-04-06T22:52:42.855Z,98721.09
2023-04-06T22:55:19.081Z,98724.53
2023-04-06T22:57:55.256Z,98724.69
2023-04-06T23:00:29.383Z,98723.78
2023-04-06T23:03:05.851Z,98733.97
2023-04-06T23:05:42.109Z,98733.97
2023-04-06T23:08:18.297Z,98737.47
2023-04-06T23:10:56.002Z,98742.69
2023-04-06T23:13:30.408Z,98746.31
2023-04-06T23:16:04.677Z,98744.28
2023-04-06T23:18:40.782Z,98748.75
2023-04-06T23:21:15.019Z,98747.78
2023-04-06T23:23:49.751Z,98743.66
2023-04-06T23:26:25.221Z,98744.53
2023-04-06T23:29:00.814Z,98746.22
2023-04-06T23:31:34.761Z,98742.88
2023-04-06T23:34:09.027Z,98748.94
2023-04-06T23:36:43.275Z,98742.00
2023-04-06T23:39:19.321Z,98744.72
2023-04-06T23:41:55.137Z,98743.00
2023-04-06T23:44:34.281Z,98744.75
2023-04-06T23:47:10.466Z,98758.13
2023-04-06T23:49:46.734Z,98752.81
2023-04-06T23:52:22.618Z,98754.06
2023-04-06T23:54:58.988Z,98765.94
2023-04-06T23:57:33.905Z,98764.47
